Time;durP1;ratioP1;P1;durP2;ratioP2;P2;SDS_P1;SDS_P2;PMS_P1;PMS_P2;Temp;Humidity;BMP_temperature;BMP_pressure;BME280_temperature;BME280_humidity;BME280_pressure;Samples;Min_cycle;Max_cycle;Signal;HPM_P1;HPM_P2
2021/11/05 00:00:00;;;;;;;;;;;;;;;20.69;49.54;101947.25;7283375;19;154101;-49
2021/11/05 00:02:29;;;;;;;;;;;;;;;20.68;49.50;101943.59;7281002;19;152049;-49
2021/11/05 00:04:56;;;;;;;;;;;;;;;20.69;49.59;101948.09;7283226;19;154190;-50
2021/11/05 00:07:23;;;;;;;;;;;;;;;20.71;49.46;101956.25;7283896;19;153389;-50
2021/11/05 00:09:50;;;;;;;;;;;;;;;20.71;49.86;101961.88;7284010;19;151815;-50
2021/11/05 00:12:16;;;;;;;;;;;;;;;20.71;49.77;101959.06;7288453;19;152713;-50
2021/11/05 00:14:43;;;;;;;;;;;;;;;20.71;49.52;101971.13;7284168;19;151763;-49
2021/11/05 00:17:10;;;;;;;;;;;;;;;20.71;49.46;101971.13;7281911;19;153047;-50
2021/11/05 00:19:38;;;;;;;;;;;;;;;20.72;49.51;101963.53;7283848;19;153869;-49
2021/11/05 00:22:06;;;;;;;;;;;;;;;20.72;49.81;101967.19;7283888;19;152240;-50
2021/11/05 00:24:33;;;;;;;;;;;;;;;20.73;49.81;101968.03;7283634;19;153045;-50
2021/11/05 00:27:00;;;;;;;;;;;;;;;20.72;49.82;101967.19;7279486;19;155905;-50
2021/11/05 00:29:26;;;;;;;;;;;;;;;20.71;50.18;101973.09;7284051;19;152008;-49
2021/11/05 00:31:53;;;;;;;;;;;;;;;20.70;49.90;101969.44;7287803;19;153010;-50
2021/11/05 00:34:20;;;;;;;;;;;;;;;20.69;50.41;101967.75;7280650;19;151854;-50
2021/11/05 00:36:48;;;;;;;;;;;;;;;20.70;49.96;101977.03;7287194;19;153782;-49
2021/11/05 00:39:15;;;;;;;;;;;;;;;20.69;50.37;101967.75;7287864;19;153883;-50
2021/11/05 00:41:41;;;;;;;;;;;;;;;20.69;50.29;101967.75;7290221;19;151910;-50
2021/11/05 00:44:08;;;;;;;;;;;;;;;20.67;50.07;101977.59;7288827;19;152568;-49
2021/11/05 00:46:35;;;;;;;;;;;;;;;20.68;49.94;101973.66;7288825;19;153860;-50
2021/11/05 00:49:02;;;;;;;;;;;;;;;20.70;49.84;101972.25;7290109;19;152103;-50
2021/11/05 00:51:29;;;;;;;;;;;;;;;20.69;50.08;101970.56;7289930;19;153350;-49
2021/11/05 00:53:56;;;;;;;;;;;;;;;20.68;50.15;101970.84;7292115;19;153252;-49
2021/11/05 00:56:23;;;;;;;;;;;;;;;20.68;50.06;101970.84;7289937;19;153079;-49
2021/11/05 00:58:50;;;;;;;;;;;;;;;20.68;50.07;101971.69;7285156;19;153294;-50
2021/11/05 01:01:17;;;;;;;;;;;;;;;20.65;49.77;101972.28;7288488;19;152507;-50
2021/11/05 01:03:44;;;;;;;;;;;;;;;20.64;50.13;101975.34;7288728;19;153343;-50
2021/11/05 01:06:12;;;;;;;;;;;;;;;20.64;50.04;101969.72;7289282;19;153417;-49
2021/11/05 01:08:39;;;;;;;;;;;;;;;20.64;49.93;101986.59;7287976;19;151737;-50
2021/11/05 01:11:07;;;;;;;;;;;;;;;20.59;49.74;101984.63;7289461;19;152713;-50
2021/11/05 01:13:34;;;;;;;;;;;;;;;20.57;49.88;101988.84;7284517;19;154057;-49
2021/11/05 01:16:01;;;;;;;;;;;;;;;20.56;49.99;101982.41;7296745;19;152123;-49
2021/11/05 01:18:28;;;;;;;;;;;;;;;20.55;50.13;101983.50;7286318;19;153262;-49
2021/11/05 01:20:55;;;;;;;;;;;;;;;20.55;50.29;101980.72;7288191;19;151920;-50
2021/11/05 01:23:22;;;;;;;;;;;;;;;20.52;49.98;101983.25;7287083;19;152702;-50
2021/11/05 01:25:49;;;;;;;;;;;;;;;20.51;49.96;101987.16;7287410;19;153793;-50
2021/11/05 01:28:16;;;;;;;;;;;;;;;20.49;50.30;101995.88;7286728;19;152549;-51
2021/11/05 01:30:43;;;;;;;;;;;;;;;20.42;50.08;101993.38;7288448;19;152617;-50
2021/11/05 01:33:10;;;;;;;;;;;;;;;20.42;50.01;101984.94;7284719;19;154338;-50
2021/11/05 01:35:38;;;;;;;;;;;;;;;20.40;50.10;101989.13;7287331;19;151868;-49
2021/11/05 01:38:08;;;;;;;;;;;;;;;20.40;50.07;101992.78;7295401;19;153231;-49
2021/11/05 01:40:36;;;;;;;;;;;;;;;20.34;49.81;101984.66;7287412;19;151718;-49
2021/11/05 01:43:04;;;;;;;;;;;;;;;20.32;50.03;101984.94;7286329;19;152846;-50
2021/11/05 01:45:31;;;;;;;;;;;;;;;20.26;49.90;101991.63;7286195;19;152231;-49
2021/11/05 01:47:58;;;;;;;;;;;;;;;20.22;50.27;101995.28;7285751;19;152088;-50
2021/11/05 01:50:27;;;;;;;;;;;;;;;20.24;50.01;101993.91;7286157;19;153454;-49
2021/11/05 01:52:54;;;;;;;;;;;;;;;20.21;50.02;101988.88;7286554;19;153694;-49
2021/11/05 01:55:22;;;;;;;;;;;;;;;20.21;49.85;101997.28;7287434;19;152024;-49
2021/11/05 01:57:48;;;;;;;;;;;;;;;20.14;50.30;101995.84;7288228;19;153392;-50
2021/11/05 02:00:18;;;;;;;;;;;;;;;20.13;50.38;102002.59;7291213;19;153982;-50
2021/11/05 02:02:45;;;;;;;;;;;;;;;20.19;49.50;102001.47;7282171;19;152598;-49
2021/11/05 02:05:12;;;;;;;;;;;;;;;20.09;50.15;102007.06;7286314;19;154147;-49
2021/11/05 02:07:43;;;;;;;;;;;;;;;20.06;50.48;102010.44;7285116;19;151853;-50
2021/11/05 02:10:10;;;;;;;;;;;;;;;20.07;50.42;102012.16;7287460;19;153188;-49
2021/11/05 02:12:37;;;;;;;;;;;;;;;20.01;50.43;102010.44;7284989;19;153236;-50
2021/11/05 02:15:05;;;;;;;;;;;;;;;20.03;50.51;102013.81;7282164;19;151803;-49
2021/11/05 02:17:33;;;;;;;;;;;;;;;20.00;50.10;102018.00;7285600;19;152015;-50
2021/11/05 02:20:01;;;;;;;;;;;;;;;19.96;50.19;102017.72;7285903;19;153213;-49
2021/11/05 02:22:28;;;;;;;;;;;;;;;19.95;50.66;102013.25;7294919;19;151508;-50
2021/11/05 02:24:55;;;;;;;;;;;;;;;19.90;50.59;102016.03;7283410;19;153227;-50
2021/11/05 02:27:22;;;;;;;;;;;;;;;19.88;50.66;102012.69;7287138;19;152038;-49
2021/11/05 02:29:49;;;;;;;;;;;;;;;19.89;50.58;102019.97;7286539;19;152665;-49
2021/11/05 02:32:16;;;;;;;;;;;;;;;19.90;50.19;102020.78;7286005;19;153309;-50
2021/11/05 02:34:42;;;;;;;;;;;;;;;19.83;50.29;102015.47;7283674;19;152343;-50
2021/11/05 02:37:09;;;;;;;;;;;;;;;19.83;50.49;102017.44;7286752;19;154454;-49
2021/11/05 02:39:36;;;;;;;;;;;;;;;19.83;50.71;102018.28;7285064;19;152363;-49
2021/11/05 02:42:03;;;;;;;;;;;;;;;19.81;50.65;102017.69;7294323;19;151846;-49
2021/11/05 02:44:30;;;;;;;;;;;;;;;19.84;50.62;102025.59;7283245;19;153968;-49
2021/11/05 02:46:57;;;;;;;;;;;;;;;19.79;50.61;102017.16;7283204;19;152105;-50
2021/11/05 02:49:24;;;;;;;;;;;;;;;19.81;50.68;102031.72;7286781;19;152702;-50
2021/11/05 02:51:51;;;;;;;;;;;;;;;19.82;50.76;102033.41;7286026;19;153808;-49
2021/11/05 02:54:17;;;;;;;;;;;;;;;19.75;50.64;102030.03;7284958;19;151856;-50
2021/11/05 02:56:44;;;;;;;;;;;;;;;19.80;50.51;102032.88;7283937;19;153147;-50
2021/11/05 02:59:11;;;;;;;;;;;;;;;19.70;50.98;102030.03;7282753;19;153681;-49
2021/11/05 03:01:38;;;;;;;;;;;;;;;19.71;50.90;102031.72;7282471;19;151980;-49
2021/11/05 03:04:06;;;;;;;;;;;;;;;19.68;50.49;102037.84;7290992;19;153171;-50
2021/11/05 03:06:37;;;;;;;;;;;;;;;19.65;50.69;102034.78;7284247;19;151868;-49
2021/11/05 03:09:06;;;;;;;;;;;;;;;19.59;50.80;102036.72;7286529;19;152778;-49
2021/11/05 03:11:33;;;;;;;;;;;;;;;19.59;50.76;102042.31;7284978;19;154712;-50
2021/11/05 03:14:00;;;;;;;;;;;;;;;19.53;50.98;102044.25;7282845;19;151863;-50
2021/11/05 03:16:26;;;;;;;;;;;;;;;19.51;51.18;102045.66;7283973;19;152824;-50
2021/11/05 03:18:53;;;;;;;;;;;;;;;19.53;51.00;102049.88;7283394;19;154107;-50
2021/11/05 03:21:19;;;;;;;;;;;;;;;19.46;51.05;102043.69;7284013;19;151880;-50
2021/11/05 03:23:46;;;;;;;;;;;;;;;19.48;51.03;102049.03;7284789;19;153557;-49
2021/11/05 03:26:13;;;;;;;;;;;;;;;19.43;51.09;102060.19;7292558;19;153262;-50
2021/11/05 03:28:40;;;;;;;;;;;;;;;19.43;51.10;102058.25;7285337;19;152114;-49
2021/11/05 03:31:06;;;;;;;;;;;;;;;19.46;50.81;102057.69;7284429;19;154521;-49
2021/11/05 03:33:33;;;;;;;;;;;;;;;19.40;51.10;102069.97;7282709;19;151800;-49
2021/11/05 03:36:00;;;;;;;;;;;;;;;19.39;51.20;102067.47;7286059;19;152791;-50
2021/11/05 03:38:27;;;;;;;;;;;;;;;19.36;50.99;102073.59;7283366;19;153804;-50
2021/11/05 03:40:54;;;;;;;;;;;;;;;19.35;51.34;102072.75;7285415;19;151866;-49
2021/11/05 03:43:20;;;;;;;;;;;;;;;19.35;51.20;102075.53;7284407;19;153709;-49
2021/11/05 03:45:47;;;;;;;;;;;;;;;19.34;50.86;102075.84;7282059;19;152430;-49
2021/11/05 03:48:14;;;;;;;;;;;;;;;19.30;51.03;102080.31;7291818;19;152566;-50
2021/11/05 03:50:40;;;;;;;;;;;;;;;19.24;51.57;102079.44;7284120;19;153876;-50
2021/11/05 03:53:08;;;;;;;;;;;;;;;19.25;51.46;102094.28;7284410;19;151878;-50
2021/11/05 03:55:35;;;;;;;;;;;;;;;19.24;51.25;102095.38;7280930;19;153622;-49
2021/11/05 03:58:02;;;;;;;;;;;;;;;19.26;51.50;102094.00;7282269;19;152421;-49
2021/11/05 04:00:29;;;;;;;;;;;;;;;19.23;51.66;102094.53;7283980;19;152384;-50
2021/11/05 04:02:55;;;;;;;;;;;;;;;19.27;51.51;102100.44;7281598;19;153833;-49
2021/11/05 04:05:22;;;;;;;;;;;;;;;19.20;51.59;102103.50;7282085;19;153912;-49
2021/11/05 04:07:51;;;;;;;;;;;;;;;19.20;51.77;102105.47;7285227;19;152052;-50
2021/11/05 04:10:18;;;;;;;;;;;;;;;19.19;51.98;102110.22;7293473;19;152853;-50
2021/11/05 04:12:45;;;;;;;;;;;;;;;19.15;52.04;102111.88;7288944;19;151710;-50
2021/11/05 04:15:11;;;;;;;;;;;;;;;19.13;52.30;102113.25;7288310;19;152440;-50
2021/11/05 04:17:38;;;;;;;;;;;;;;;19.15;52.42;102120.28;7287516;19;153829;-49
2021/11/05 04:20:05;;;;;;;;;;;;;;;19.09;52.32;102122.19;7286922;19;152459;-50
2021/11/05 04:22:32;;;;;;;;;;;;;;;19.14;52.21;102123.34;7288974;19;152875;-49
2021/11/05 04:24:59;;;;;;;;;;;;;;;19.08;52.51;102128.91;7289306;19;153963;-50
2021/11/05 04:27:26;;;;;;;;;;;;;;;19.10;52.21;102137.03;7289802;19;151618;-50
2021/11/05 04:29:52;;;;;;;;;;;;;;;19.10;52.55;102135.09;7288495;19;153286;-50
2021/11/05 04:32:19;;;;;;;;;;;;;;;19.04;52.43;102141.75;7293407;19;153461;-50
2021/11/05 04:34:46;;;;;;;;;;;;;;;19.03;51.96;102142.88;7289549;19;153216;-50
2021/11/05 04:37:12;;;;;;;;;;;;;;;19.05;52.18;102145.41;7287163;19;153443;-50
2021/11/05 04:39:39;;;;;;;;;;;;;;;19.04;52.31;102144.56;7289386;19;151699;-49
2021/11/05 04:42:06;;;;;;;;;;;;;;;19.02;52.26;102149.59;7289388;19;153516;-50
2021/11/05 04:44:33;;;;;;;;;;;;;;;19.00;52.06;102150.97;7286766;19;153442;-50
2021/11/05 04:47:00;;;;;;;;;;;;;;;18.95;52.08;102154.59;7289425;19;152422;-49
2021/11/05 04:49:26;;;;;;;;;;;;;;;19.00;52.37;102157.41;7288961;19;153599;-49
2021/11/05 04:51:53;;;;;;;;;;;;;;;18.95;52.42;102160.19;7296352;19;153411;-50
2021/11/05 04:54:20;;;;;;;;;;;;;;;18.95;52.05;102165.78;7288183;19;152936;-50
2021/11/05 04:56:47;;;;;;;;;;;;;;;18.89;52.46;102166.88;7288926;19;153799;-50
2021/11/05 04:59:16;;;;;;;;;;;;;;;18.90;52.15;102167.69;7289374;19;151956;-49
2021/11/05 05:01:43;;;;;;;;;;;;;;;18.88;52.50;102167.13;7286158;19;152361;-49
2021/11/05 05:04:10;;;;;;;;;;;;;;;18.90;51.99;102157.34;7287535;19;153821;-49
2021/11/05 05:06:37;;;;;;;;;;;;;;;18.88;52.33;102165.19;7289348;19;152046;-50
2021/11/05 05:09:04;;;;;;;;;;;;;;;18.83;52.67;102167.09;7286534;19;152755;-50
2021/11/05 05:11:31;;;;;;;;;;;;;;;18.80;52.35;102162.88;7288014;19;153606;-49
2021/11/05 05:13:58;;;;;;;;;;;;;;;18.84;52.60;102160.38;7296079;19;151565;-49
2021/11/05 05:16:25;;;;;;;;;;;;;;;18.80;52.62;102173.22;7285192;19;153589;-49
2021/11/05 05:18:51;;;;;;;;;;;;;;;18.77;52.33;102168.13;7289296;19;151795;-49
2021/11/05 05:21:18;;;;;;;;;;;;;;;18.75;52.56;102179.63;7285787;19;152799;-50
2021/11/05 05:23:45;;;;;;;;;;;;;;;18.75;52.72;102178.78;7287729;19;153441;-49
2021/11/05 05:26:12;;;;;;;;;;;;;;;18.73;52.38;102181.00;7287917;19;152085;-49
2021/11/05 05:28:38;;;;;;;;;;;;;;;18.72;53.00;102191.34;7286196;19;151794;-49
2021/11/05 05:31:07;;;;;;;;;;;;;;;18.76;52.96;102178.50;7284386;19;154301;-49
2021/11/05 05:33:36;;;;;;;;;;;;;;;18.87;53.12;102177.47;7288235;19;152148;-49
2021/11/05 05:36:04;;;;;;;;;;;;;;;18.91;53.59;102183.38;7290249;19;153046;-50
2021/11/05 05:38:31;;;;;;;;;;;;;;;18.98;53.27;102184.88;7288292;19;152020;-50
2021/11/05 05:40:58;;;;;;;;;;;;;;;19.00;53.44;102184.59;7286424;19;152667;-49
2021/11/05 05:43:25;;;;;;;;;;;;;;;19.00;53.70;102182.63;7284112;19;154420;-49
2021/11/05 05:45:51;;;;;;;;;;;;;;;19.03;53.36;102182.09;7285941;19;152153;-49
2021/11/05 05:48:18;;;;;;;;;;;;;;;19.07;53.72;102190.81;7287594;19;153869;-49
2021/11/05 05:50:45;;;;;;;;;;;;;;;19.11;54.12;102191.97;7286638;19;154004;-50
2021/11/05 05:53:12;;;;;;;;;;;;;;;19.17;54.36;102190.06;7288392;19;152086;-49
2021/11/05 05:55:39;;;;;;;;;;;;;;;19.21;54.02;102192.03;7284246;19;152657;-49
2021/11/05 05:58:06;;;;;;;;;;;;;;;19.26;54.12;102186.44;7293648;19;153367;-49
2021/11/05 06:00:34;;;;;;;;;;;;;;;19.32;53.93;102190.13;7286047;19;152803;-49
2021/11/05 06:03:01;;;;;;;;;;;;;;;19.38;53.76;102189.91;7282727;19;153306;-50
2021/11/05 06:05:27;;;;;;;;;;;;;;;19.43;53.76;102194.72;7287940;19;152133;-50
2021/11/05 06:07:54;;;;;;;;;;;;;;;19.47;53.46;102185.53;7287232;19;152810;-50
2021/11/05 06:10:21;;;;;;;;;;;;;;;19.53;53.40;102192.81;7283844;19;152778;-49
2021/11/05 06:12:48;;;;;;;;;;;;;;;19.58;53.66;102194.81;7285199;19;151644;-49
2021/11/05 06:15:14;;;;;;;;;;;;;;;19.64;52.91;102196.53;7286400;19;152756;-49
2021/11/05 06:17:41;;;;;;;;;;;;;;;19.67;53.10;102198.78;7285216;19;153386;-51
2021/11/05 06:20:08;;;;;;;;;;;;;;;19.71;53.22;102197.16;7294263;19;152280;-50
2021/11/05 06:22:35;;;;;;;;;;;;;;;19.77;52.96;102206.41;7285280;19;152860;-50
2021/11/05 06:25:03;;;;;;;;;;;;;;;19.84;52.60;102207.03;7286736;19;151760;-50
2021/11/05 06:27:30;;;;;;;;;;;;;;;19.89;52.83;102209.88;7285181;19;152405;-49
2021/11/05 06:29:56;;;;;;;;;;;;;;;19.89;53.00;102219.13;7282381;19;153667;-50
2021/11/05 06:32:23;;;;;;;;;;;;;;;19.97;52.60;102218.59;7285308;19;152126;-50
2021/11/05 06:34:50;;;;;;;;;;;;;;;20.02;52.52;102222.53;7283370;19;154036;-50
2021/11/05 06:37:17;;;;;;;;;;;;;;;20.06;52.44;102226.47;7284667;19;154317;-49
2021/11/05 06:39:44;;;;;;;;;;;;;;;20.11;52.19;102232.97;7292382;19;152112;-50
2021/11/05 06:42:13;;;;;;;;;;;;;;;20.17;52.19;102233.84;7285686;19;153945;-50
2021/11/05 06:44:39;;;;;;;;;;;;;;;20.21;51.80;102246.19;7287153;19;151861;-49
2021/11/05 06:47:06;;;;;;;;;;;;;;;20.24;51.96;102240.88;7286264;19;152816;-49
2021/11/05 06:49:33;;;;;;;;;;;;;;;20.30;51.86;102244.56;7282954;19;154918;-50
2021/11/05 06:52:00;;;;;;;;;;;;;;;20.34;52.29;102259.75;7284816;19;152472;-50
2021/11/05 06:54:26;;;;;;;;;;;;;;;20.38;51.51;102261.72;7285386;19;152788;-50
2021/11/05 06:56:53;;;;;;;;;;;;;;;20.41;51.33;102257.50;7282327;19;153953;-50
2021/11/05 06:59:20;;;;;;;;;;;;;;;20.44;51.31;102268.22;7285098;19;151935;-50
2021/11/05 07:01:46;;;;;;;;;;;;;;;20.47;51.08;102270.44;7291450;19;154085;-49
2021/11/05 07:04:13;;;;;;;;;;;;;;;20.51;51.36;102270.75;7285551;19;151848;-50
2021/11/05 07:06:45;;;;;;;;;;;;;;;20.56;51.27;102282.84;7286493;19;153188;-50
2021/11/05 07:09:14;;;;;;;;;;;;;;;20.58;50.98;102286.19;7284229;19;153852;-50
2021/11/05 07:11:41;;;;;;;;;;;;;;;20.63;51.17;102288.19;7283566;19;152089;-50
2021/11/05 07:14:08;;;;;;;;;;;;;;;20.64;50.92;102293.53;7284128;19;153138;-50
2021/11/05 07:16:36;;;;;;;;;;;;;;;20.72;50.81;102290.16;7282453;19;154037;-50
2021/11/05 07:19:04;;;;;;;;;;;;;;;20.75;51.06;102288.78;7284079;19;151740;-50
2021/11/05 07:21:31;;;;;;;;;;;;;;;20.79;51.33;102296.38;7285973;19;153449;-50
2021/11/05 07:24:02;;;;;;;;;;;;;;;20.83;51.30;102296.66;7290343;19;153709;-50
2021/11/05 07:26:34;;;;;;;;;;;;;;;20.89;50.23;102301.19;7285421;19;153288;-49
2021/11/05 07:29:02;;;;;;;;;;;;;;;20.90;50.37;102304.81;7282310;19;153389;-50
2021/11/05 07:31:29;;;;;;;;;;;;;;;20.91;49.62;102301.72;7283413;19;152495;-50
2021/11/05 07:33:56;;;;;;;;;;;;;;;20.91;50.27;102304.53;7282155;19;153182;-49
2021/11/05 07:36:24;;;;;;;;;;;;;;;20.94;49.80;102311.59;7279114;19;153910;-50
2021/11/05 07:38:50;;;;;;;;;;;;;;;20.96;49.80;102314.94;7283890;19;152394;-50
2021/11/05 07:41:18;;;;;;;;;;;;;;;20.96;49.69;102315.78;7282793;19;153111;-49
2021/11/05 07:43:45;;;;;;;;;;;;;;;21.03;49.61;102323.97;7282082;19;153329;-51
2021/11/05 07:46:12;;;;;;;;;;;;;;;21.07;49.15;102327.91;7292309;19;151767;-50
2021/11/05 07:48:39;;;;;;;;;;;;;;;21.09;49.08;102345.31;7284209;19;154152;-50
2021/11/05 07:51:05;;;;;;;;;;;;;;;20.81;39.77;102353.13;7282034;19;151843;-49
2021/11/05 07:53:33;;;;;;;;;;;;;;;20.87;43.98;102362.41;7282419;19;153996;-48
2021/11/05 07:55:59;;;;;;;;;;;;;;;20.73;42.06;102362.09;7281969;19;153898;-49
2021/11/05 07:58:26;;;;;;;;;;;;;;;20.83;42.18;102362.13;7281724;19;152362;-49
2021/11/05 08:00:53;;;;;;;;;;;;;;;20.88;42.51;102363.25;7284311;19;152689;-49
2021/11/05 08:03:21;;;;;;;;;;;;;;;20.89;42.86;102370.56;7278163;19;153727;-49
2021/11/05 08:05:49;;;;;;;;;;;;;;;20.91;42.72;102373.94;7284797;19;151866;-49
2021/11/05 08:08:16;;;;;;;;;;;;;;;20.90;43.28;102378.69;7287317;19;153864;-49
2021/11/05 08:10:43;;;;;;;;;;;;;;;20.91;43.41;102376.75;7283520;19;151791;-49
2021/11/05 08:13:11;;;;;;;;;;;;;;;20.91;42.99;102374.78;7282919;19;153082;-49
2021/11/05 08:15:37;;;;;;;;;;;;;;;20.90;43.29;102377.84;7282135;19;153720;-50
2021/11/05 08:18:04;;;;;;;;;;;;;;;20.90;43.71;102383.47;7283779;19;152332;-50
2021/11/05 08:20:31;;;;;;;;;;;;;;;20.88;43.70;102380.13;7283419;19;153506;-49
2021/11/05 08:22:57;;;;;;;;;;;;;;;20.91;43.39;102382.34;7280767;19;153421;-50
2021/11/05 08:25:26;;;;;;;;;;;;;;;20.91;43.52;102382.34;7283306;19;152027;-50
2021/11/05 08:27:53;;;;;;;;;;;;;;;20.92;43.89;102392.47;7283241;19;152807;-49
2021/11/05 08:30:22;;;;;;;;;;;;;;;20.87;43.68;102393.31;7287761;19;153997;-50
2021/11/05 08:32:49;;;;;;;;;;;;;;;20.85;43.66;102396.38;7281618;19;153137;-49
2021/11/05 08:35:19;;;;;;;;;;;;;;;20.84;43.65;102396.69;7282237;19;154332;-49
2021/11/05 08:37:46;;;;;;;;;;;;;;;20.81;43.29;102398.06;7281660;19;152632;-50
2021/11/05 08:40:13;;;;;;;;;;;;;;;20.79;43.43;102397.50;7282759;19;152953;-50
2021/11/05 08:42:40;;;;;;;;;;;;;;;20.76;43.06;102403.66;7269950;19;153943;-49
2021/11/05 08:45:07;;;;;;;;;;;;;;;20.74;43.30;102396.63;7278991;19;152270;-50
2021/11/05 08:47:37;;;;;;;;;;;;;;;20.71;43.16;102408.44;7283168;19;153256;-49
2021/11/05 08:50:05;;;;;;;;;;;;;;;20.67;43.05;102410.91;7286561;19;152959;-49
2021/11/05 08:52:33;;;;;;;;;;;;;;;20.65;43.15;102418.78;7278618;19;154368;-50
2021/11/05 08:55:04;;;;;;;;;;;;;;;20.60;43.00;102413.16;7280842;19;153230;-49
2021/11/05 08:57:32;;;;;;;;;;;;;;;20.58;43.16;102418.19;7284241;19;152525;-50
2021/11/05 08:59:59;;;;;;;;;;;;;;;20.55;43.13;102424.34;7287386;19;152800;-49
2021/11/05 09:02:27;;;;;;;;;;;;;;;20.52;42.86;102419.28;7284287;19;152725;-49
2021/11/05 09:04:54;;;;;;;;;;;;;;;20.50;43.08;102421.50;7289302;19;151991;-50
2021/11/05 09:07:21;;;;;;;;;;;;;;;20.49;42.75;102430.22;7288930;19;153438;-50
2021/11/05 09:09:48;;;;;;;;;;;;;;;20.47;43.24;102435.25;7284062;19;153922;-50
2021/11/05 09:12:14;;;;;;;;;;;;;;;20.44;42.84;102441.44;7296763;19;151795;-50
2021/11/05 09:14:41;;;;;;;;;;;;;;;20.43;42.75;102446.19;7286421;19;153318;-49
2021/11/05 09:17:13;;;;;;;;;;;;;;;20.40;43.18;102444.75;7287039;19;151997;-49
2021/11/05 09:19:39;;;;;;;;;;;;;;;20.38;42.95;102440.53;7286952;19;152720;-50
2021/11/05 09:22:06;;;;;;;;;;;;;;;20.35;43.34;102441.91;7287994;19;153402;-49
2021/11/05 09:24:34;;;;;;;;;;;;;;;20.32;43.06;102448.06;7288752;19;152746;-50
2021/11/05 09:27:01;;;;;;;;;;;;;;;20.31;43.39;102453.94;7287491;19;153385;-49
2021/11/05 09:29:27;;;;;;;;;;;;;;;20.29;43.36;102456.16;7286852;19;153802;-50
2021/11/05 09:31:55;;;;;;;;;;;;;;;20.29;43.13;102456.16;7287780;19;151995;-50
2021/11/05 09:34:22;;;;;;;;;;;;;;;20.24;43.05;102464.53;7293189;19;152655;-49
2021/11/05 09:36:50;;;;;;;;;;;;;;;20.21;43.08;102454.72;7283987;19;152463;-50
2021/11/05 09:39:16;;;;;;;;;;;;;;;20.20;43.15;102458.63;7288134;19;153142;-49
2021/11/05 09:41:44;;;;;;;;;;;;;;;20.18;42.81;102458.03;7286401;19;154703;-49
2021/11/05 09:44:10;;;;;;;;;;;;;;;20.17;42.79;102469.56;7283913;19;152099;-49
2021/11/05 09:46:38;;;;;;;;;;;;;;;20.16;42.96;102462.25;7285685;19;152643;-49
2021/11/05 09:49:05;;;;;;;;;;;;;;;20.16;43.13;102465.91;7284681;19;153271;-50
2021/11/05 09:51:31;;;;;;;;;;;;;;;20.19;43.35;102472.91;7287672;19;151803;-50
2021/11/05 09:54:01;;;;;;;;;;;;;;;20.21;43.42;102473.50;7286663;19;153593;-50
2021/11/05 09:56:30;;;;;;;;;;;;;;;20.24;43.23;102470.16;7290342;19;153869;-50
2021/11/05 09:58:56;;;;;;;;;;;;;;;20.27;43.39;102475.22;7285552;19;152635;-49
2021/11/05 10:01:23;;;;;;;;;;;;;;;20.32;43.30;102472.50;7283514;19;153004;-49
2021/11/05 10:03:50;;;;;;;;;;;;;;;20.38;43.07;102466.66;7284736;19;152124;-50
2021/11/05 10:06:19;;;;;;;;;;;;;;;20.41;43.32;102468.06;7284595;19;153993;-50
2021/11/05 10:08:51;;;;;;;;;;;;;;;20.47;42.88;102477.38;7285685;19;153407;-49
2021/11/05 10:11:22;;;;;;;;;;;;;;;20.49;43.30;102473.16;7286161;19;152792;-49
2021/11/05 10:13:49;;;;;;;;;;;;;;;20.54;42.90;102472.34;7285200;19;153431;-49
2021/11/05 10:16:17;;;;;;;;;;;;;;;20.58;43.13;102470.72;7282522;19;154031;-49
2021/11/05 10:18:53;;;;;;;;;;;;;;;20.62;43.02;102480.28;7295136;19;151877;-50
2021/11/05 10:21:19;;;;;;;;;;;;;;;20.66;43.28;102473.84;7285177;19;153551;-49
2021/11/05 10:23:47;;;;;;;;;;;;;;;20.69;43.14;102475.25;7285285;19;152104;-49
2021/11/05 10:26:25;;;;;;;;;;;;;;;20.72;42.73;102478.34;7285834;19;152033;-50
2021/11/05 10:28:52;;;;;;;;;;;;;;;20.75;42.74;102474.19;7286187;19;153526;-49
2021/11/05 10:31:23;;;;;;;;;;;;;;;20.78;42.71;102480.09;7287281;19;152197;-50
2021/11/05 10:33:51;;;;;;;;;;;;;;;20.80;42.82;102469.41;7284858;19;153873;-50
2021/11/05 10:36:19;;;;;;;;;;;;;;;20.84;42.91;102478.16;7283986;19;153359;-50
2021/11/05 10:38:46;;;;;;;;;;;;;;;20.87;43.04;102477.59;7283372;19;152119;-49
2021/11/05 10:41:17;;;;;;;;;;;;;;;20.92;42.90;102476.78;7290592;19;152807;-49
2021/11/05 10:43:45;;;;;;;;;;;;;;;20.95;42.57;102481.84;7286569;19;152125;-49
2021/11/05 10:46:22;;;;;;;;;;;;;;;20.98;42.84;102478.50;7286664;19;154045;-50
2021/11/05 10:48:50;;;;;;;;;;;;;;;20.99;42.87;102477.34;7285351;19;154084;-49
2021/11/05 10:51:19;;;;;;;;;;;;;;;21.03;42.75;102486.97;7286039;19;152208;-50
2021/11/05 10:53:46;;;;;;;;;;;;;;;21.03;42.91;102475.72;7284746;19;153186;-50
2021/11/05 10:56:15;;;;;;;;;;;;;;;21.05;42.57;102482.75;7281025;19;153812;-50
2021/11/05 10:58:51;;;;;;;;;;;;;;;21.07;42.82;102483.31;7286547;19;152329;-49
2021/11/05 11:01:20;;;;;;;;;;;;;;;21.08;42.75;102481.31;7289166;19;152989;-49
2021/11/05 11:03:48;;;;;;;;;;;;;;;21.09;42.68;102492.31;7285169;19;151950;-49
2021/11/05 11:06:18;;;;;;;;;;;;;;;21.11;42.29;102487.28;7284566;19;153157;-50
2021/11/05 11:08:46;;;;;;;;;;;;;;;21.12;42.21;102488.13;7282954;19;154239;-49
2021/11/05 11:11:13;;;;;;;;;;;;;;;21.12;42.32;102499.34;7283698;19;151587;-49
2021/11/05 11:13:40;;;;;;;;;;;;;;;21.13;42.17;102501.06;7284601;19;152588;-49
2021/11/05 11:16:08;;;;;;;;;;;;;;;21.12;41.97;102493.75;7283098;19;153815;-50
2021/11/05 11:18:45;;;;;;;;;;;;;;;21.13;42.28;102496.28;7280754;19;151906;-50
2021/11/05 11:21:12;;;;;;;;;;;;;;;21.12;42.24;102494.56;7282753;19;154859;-49
2021/11/05 11:23:39;;;;;;;;;;;;;;;21.12;42.19;102500.19;7289335;19;153414;-49
2021/11/05 11:26:06;;;;;;;;;;;;;;;21.12;41.98;102502.16;7283283;19;151921;-50
2021/11/05 11:28:33;;;;;;;;;;;;;;;21.11;41.90;102503.28;7282167;19;154246;-51
2021/11/05 11:31:00;;;;;;;;;;;;;;;21.09;41.88;102488.66;7281752;19;152118;-50
2021/11/05 11:33:27;;;;;;;;;;;;;;;21.09;41.91;102494.28;7284323;19;153041;-49
2021/11/05 11:35:54;;;;;;;;;;;;;;;21.08;41.90;102489.75;7284361;19;153403;-49
2021/11/05 11:38:21;;;;;;;;;;;;;;;21.09;41.97;102488.66;7282025;19;151971;-49
2021/11/05 11:40:48;;;;;;;;;;;;;;;21.11;42.00;102487.28;7282489;19;152947;-50
2021/11/05 11:43:16;;;;;;;;;;;;;;;21.13;42.19;102487.00;7282641;19;153770;-49
2021/11/05 11:45:47;;;;;;;;;;;;;;;21.13;42.06;102478.56;7292375;19;152100;-50
2021/11/05 11:48:24;;;;;;;;;;;;;;;21.12;42.46;102471.25;7283432;19;153981;-50
2021/11/05 11:50:50;;;;;;;;;;;;;;;21.12;42.42;102483.31;7283721;19;151875;-50
2021/11/05 11:53:29;;;;;;;;;;;;;;;21.13;42.53;102485.03;7283223;19;153403;-50
2021/11/05 11:56:00;;;;;;;;;;;;;;;21.25;43.35;102477.25;7280313;19;154378;-51
2021/11/05 11:58:27;;;;;;;;;;;;;;;21.16;45.28;102481.72;7279449;19;151690;-49
2021/11/05 12:00:54;;;;;;;;;;;;;;;21.12;44.72;102480.50;7285117;19;152796;-51
2021/11/05 12:03:27;;;;;;;;;;;;;;;21.12;44.33;102474.06;7281199;19;153335;-51
2021/11/05 12:05:58;;;;;;;;;;;;;;;21.09;44.38;102471.78;7283862;19;152333;-51
2021/11/05 12:08:33;;;;;;;;;;;;;;;21.08;43.98;102468.13;7287469;19;153360;-51
2021/11/05 12:11:01;;;;;;;;;;;;;;;21.05;43.79;102465.88;7284140;19;151839;-51
2021/11/05 12:13:39;;;;;;;;;;;;;;;21.04;43.49;102467.00;7283876;19;153343;-49
2021/11/05 12:16:09;;;;;;;;;;;;;;;21.01;43.39;102461.09;7281499;19;153812;-50
2021/11/05 12:18:45;;;;;;;;;;;;;;;20.99;43.62;102463.31;7280720;19;152111;-50
2021/11/05 12:21:17;;;;;;;;;;;;;;;20.97;43.23;102463.59;7283557;19;153180;-50
2021/11/05 12:23:44;;;;;;;;;;;;;;;20.98;43.16;102461.63;7279710;19;153994;-50
2021/11/05 12:26:11;;;;;;;;;;;;;;;20.95;43.24;102467.78;7281599;19;151718;-50
2021/11/05 12:28:41;;;;;;;;;;;;;;;20.93;42.85;102462.47;7283626;19;152030;-50